sensor_id;sensor_type;location;lat;lon;timestamp;P1;durP1;ratioP1;P2;durP2;ratioP2
8881;SDS011;4477;48.736;9.176;2023-08-06T00:00:41;24.73;;;21.10;;
8881;SDS011;4477;48.736;9.176;2023-08-06T00:03:08;24.40;;;21.73;;
8881;SDS011;4477;48.736;9.176;2023-08-06T00:05:35;24.50;;;21.03;;
8881;SDS011;4477;48.736;9.176;2023-08-06T00:08:02;21.50;;;19.20;;
8881;SDS011;4477;48.736;9.176;2023-08-06T00:10:29;23.97;;;19.67;;
8881;SDS011;4477;48.736;9.176;2023-08-06T00:12:55;21.53;;;19.27;;
8881;SDS011;4477;48.736;9.176;2023-08-06T00:15:24;23.80;;;19.50;;
8881;SDS011;4477;48.736;9.176;2023-08-06T00:17:50;19.30;;;17.17;;
8881;SDS011;4477;48.736;9.176;2023-08-06T00:20:17;21.30;;;16.50;;
8881;SDS011;4477;48.736;9.176;2023-08-06T00:22:44;19.57;;;16.27;;
8881;SDS011;4477;48.736;9.176;2023-08-06T00:25:11;13.50;;;12.13;;
8881;SDS011;4477;48.736;9.176;2023-08-06T00:27:38;15.50;;;13.80;;
8881;SDS011;4477;48.736;9.176;2023-08-06T00:30:05;14.97;;;13.50;;
8881;SDS011;4477;48.736;9.176;2023-08-06T00:32:34;16.03;;;11.67;;
8881;SDS011;4477;48.736;9.176;2023-08-06T00:35:01;13.07;;;11.77;;
8881;SDS011;4477;48.736;9.176;2023-08-06T00:37:28;11.83;;;10.63;;
8881;SDS011;4477;48.736;9.176;2023-08-06T00:39:55;12.00;;;10.63;;
8881;SDS011;4477;48.736;9.176;2023-08-06T00:42:22;11.63;;;10.53;;
8881;SDS011;4477;48.736;9.176;2023-08-06T00:44:48;11.63;;;9.70;;
8881;SDS011;4477;48.736;9.176;2023-08-06T00:47:15;12.30;;;11.10;;
8881;SDS011;4477;48.736;9.176;2023-08-06T00:49:44;11.50;;;10.40;;
8881;SDS011;4477;48.736;9.176;2023-08-06T00:52:10;11.33;;;10.33;;
8881;SDS011;4477;48.736;9.176;2023-08-06T00:54:38;8.97;;;7.90;;
8881;SDS011;4477;48.736;9.176;2023-08-06T00:57:05;8.80;;;7.90;;
8881;SDS011;4477;48.736;9.176;2023-08-06T00:59:34;8.90;;;8.10;;
8881;SDS011;4477;48.736;9.176;2023-08-06T01:02:01;8.60;;;7.83;;
8881;SDS011;4477;48.736;9.176;2023-08-06T01:04:28;8.27;;;7.57;;
8881;SDS011;4477;48.736;9.176;2023-08-06T01:06:59;7.73;;;7.03;;
8881;SDS011;4477;48.736;9.176;2023-08-06T01:09:35;7.83;;;7.13;;
8881;SDS011;4477;48.736;9.176;2023-08-06T01:12:13;8.50;;;7.70;;
8881;SDS011;4477;48.736;9.176;2023-08-06T01:14:50;8.27;;;7.50;;
8881;SDS011;4477;48.736;9.176;2023-08-06T01:17:23;7.83;;;7.07;;
8881;SDS011;4477;48.736;9.176;2023-08-06T01:19:51;9.40;;;8.27;;
8881;SDS011;4477;48.736;9.176;2023-08-06T01:22:19;8.30;;;7.43;;
8881;SDS011;4477;48.736;9.176;2023-08-06T01:24:48;7.90;;;7.20;;
8881;SDS011;4477;48.736;9.176;2023-08-06T01:27:17;8.13;;;7.33;;
8881;SDS011;4477;48.736;9.176;2023-08-06T01:29:56;8.70;;;7.90;;
8881;SDS011;4477;48.736;9.176;2023-08-06T01:32:27;9.70;;;8.50;;
8881;SDS011;4477;48.736;9.176;2023-08-06T01:34:58;9.93;;;8.93;;
8881;SDS011;4477;48.736;9.176;2023-08-06T01:37:28;9.27;;;8.37;;
8881;SDS011;4477;48.736;9.176;2023-08-06T01:39:56;9.20;;;8.40;;
8881;SDS011;4477;48.736;9.176;2023-08-06T01:42:23;9.50;;;8.60;;
8881;SDS011;4477;48.736;9.176;2023-08-06T01:44:50;8.27;;;7.40;;
8881;SDS011;4477;48.736;9.176;2023-08-06T01:47:17;8.73;;;7.77;;
8881;SDS011;4477;48.736;9.176;2023-08-06T01:49:44;8.63;;;7.83;;
8881;SDS011;4477;48.736;9.176;2023-08-06T01:52:10;8.57;;;7.70;;
8881;SDS011;4477;48.736;9.176;2023-08-06T01:54:39;8.13;;;7.33;;
8881;SDS011;4477;48.736;9.176;2023-08-06T01:57:05;9.17;;;8.20;;
8881;SDS011;4477;48.736;9.176;2023-08-06T01:59:32;10.17;;;6.97;;
8881;SDS011;4477;48.736;9.176;2023-08-06T02:01:59;7.67;;;6.90;;
8881;SDS011;4477;48.736;9.176;2023-08-06T02:04:26;7.83;;;7.00;;
8881;SDS011;4477;48.736;9.176;2023-08-06T02:06:53;9.30;;;7.13;;
8881;SDS011;4477;48.736;9.176;2023-08-06T02:09:19;7.87;;;7.10;;
8881;SDS011;4477;48.736;9.176;2023-08-06T02:11:48;8.57;;;7.77;;
8881;SDS011;4477;48.736;9.176;2023-08-06T02:14:14;8.60;;;7.70;;
8881;SDS011;4477;48.736;9.176;2023-08-06T02:16:41;8.80;;;7.93;;
8881;SDS011;4477;48.736;9.176;2023-08-06T02:19:08;8.93;;;8.03;;
8881;SDS011;4477;48.736;9.176;2023-08-06T02:21:35;9.83;;;8.87;;
8881;SDS011;4477;48.736;9.176;2023-08-06T02:24:02;8.63;;;7.80;;
8881;SDS011;4477;48.736;9.176;2023-08-06T02:26:29;9.03;;;8.13;;
8881;SDS011;4477;48.736;9.176;2023-08-06T02:28:57;10.27;;;8.53;;
8881;SDS011;4477;48.736;9.176;2023-08-06T02:31:24;9.20;;;8.40;;
8881;SDS011;4477;48.736;9.176;2023-08-06T02:33:51;8.50;;;7.60;;
8881;SDS011;4477;48.736;9.176;2023-08-06T02:36:18;9.60;;;8.00;;
8881;SDS011;4477;48.736;9.176;2023-08-06T02:38:45;9.53;;;7.87;;
8881;SDS011;4477;48.736;9.176;2023-08-06T02:41:12;8.63;;;7.80;;
8881;SDS011;4477;48.736;9.176;2023-08-06T02:43:39;8.30;;;7.50;;
8881;SDS011;4477;48.736;9.176;2023-08-06T02:46:07;7.80;;;7.10;;
8881;SDS011;4477;48.736;9.176;2023-08-06T02:48:34;8.80;;;7.13;;
8881;SDS011;4477;48.736;9.176;2023-08-06T02:51:01;9.67;;;7.67;;
8881;SDS011;4477;48.736;9.176;2023-08-06T02:53:28;8.87;;;7.33;;
8881;SDS011;4477;48.736;9.176;2023-08-06T02:55:55;9.83;;;8.83;;
8881;SDS011;4477;48.736;9.176;2023-08-06T02:58:22;8.33;;;7.53;;
8881;SDS011;4477;48.736;9.176;2023-08-06T03:00:58;8.67;;;7.83;;
8881;SDS011;4477;48.736;9.176;2023-08-06T03:03:29;8.60;;;7.80;;
8881;SDS011;4477;48.736;9.176;2023-08-06T03:05:55;7.93;;;7.23;;
8881;SDS011;4477;48.736;9.176;2023-08-06T03:08:22;7.73;;;7.03;;
8881;SDS011;4477;48.736;9.176;2023-08-06T03:10:49;8.73;;;7.93;;
8881;SDS011;4477;48.736;9.176;2023-08-06T03:13:16;8.67;;;7.70;;
8881;SDS011;4477;48.736;9.176;2023-08-06T03:15:43;9.20;;;7.40;;
8881;SDS011;4477;48.736;9.176;2023-08-06T03:18:17;10.83;;;7.80;;
8881;SDS011;4477;48.736;9.176;2023-08-06T03:20:45;9.57;;;6.63;;
8881;SDS011;4477;48.736;9.176;2023-08-06T03:23:12;8.67;;;7.07;;
8881;SDS011;4477;48.736;9.176;2023-08-06T03:25:39;7.43;;;6.30;;
8881;SDS011;4477;48.736;9.176;2023-08-06T03:28:06;9.70;;;6.57;;
8881;SDS011;4477;48.736;9.176;2023-08-06T03:30:33;10.00;;;5.80;;
8881;SDS011;4477;48.736;9.176;2023-08-06T03:32:59;7.07;;;5.53;;
8881;SDS011;4477;48.736;9.176;2023-08-06T03:35:26;6.77;;;4.83;;
8881;SDS011;4477;48.736;9.176;2023-08-06T03:37:54;7.13;;;5.10;;
8881;SDS011;4477;48.736;9.176;2023-08-06T03:40:21;5.43;;;4.87;;
8881;SDS011;4477;48.736;9.176;2023-08-06T03:42:48;7.37;;;4.80;;
8881;SDS011;4477;48.736;9.176;2023-08-06T03:45:15;7.37;;;4.60;;
8881;SDS011;4477;48.736;9.176;2023-08-06T03:47:42;5.13;;;4.63;;
8881;SDS011;4477;48.736;9.176;2023-08-06T03:50:09;4.80;;;4.40;;
8881;SDS011;4477;48.736;9.176;2023-08-06T03:52:36;6.83;;;4.50;;
8881;SDS011;4477;48.736;9.176;2023-08-06T03:55:04;6.90;;;4.63;;
8881;SDS011;4477;48.736;9.176;2023-08-06T03:57:31;6.43;;;4.40;;
8881;SDS011;4477;48.736;9.176;2023-08-06T03:59:58;4.83;;;4.17;;
8881;SDS011;4477;48.736;9.176;2023-08-06T04:02:24;5.37;;;4.43;;
8881;SDS011;4477;48.736;9.176;2023-08-06T04:04:51;5.67;;;4.00;;
8881;SDS011;4477;48.736;9.176;2023-08-06T04:07:19;6.60;;;3.70;;
8881;SDS011;4477;48.736;9.176;2023-08-06T04:09:52;4.13;;;3.73;;
8881;SDS011;4477;48.736;9.176;2023-08-06T04:12:22;4.30;;;3.90;;
8881;SDS011;4477;48.736;9.176;2023-08-06T04:14:49;6.10;;;4.27;;
8881;SDS011;4477;48.736;9.176;2023-08-06T04:17:17;5.10;;;3.50;;
8881;SDS011;4477;48.736;9.176;2023-08-06T04:19:45;5.47;;;3.30;;
8881;SDS011;4477;48.736;9.176;2023-08-06T04:22:13;5.10;;;3.30;;
8881;SDS011;4477;48.736;9.176;2023-08-06T04:24:41;5.20;;;3.80;;
8881;SDS011;4477;48.736;9.176;2023-08-06T04:27:08;5.67;;;3.40;;
8881;SDS011;4477;48.736;9.176;2023-08-06T04:29:36;4.83;;;3.07;;
8881;SDS011;4477;48.736;9.176;2023-08-06T04:32:05;4.60;;;3.70;;
8881;SDS011;4477;48.736;9.176;2023-08-06T04:34:33;3.70;;;2.80;;
8881;SDS011;4477;48.736;9.176;2023-08-06T04:37:00;4.20;;;3.50;;
8881;SDS011;4477;48.736;9.176;2023-08-06T04:39:27;4.37;;;2.80;;
8881;SDS011;4477;48.736;9.176;2023-08-06T04:41:55;3.57;;;2.80;;
8881;SDS011;4477;48.736;9.176;2023-08-06T04:44:22;3.60;;;3.03;;
8881;SDS011;4477;48.736;9.176;2023-08-06T04:46:50;5.20;;;3.00;;
8881;SDS011;4477;48.736;9.176;2023-08-06T04:49:17;3.60;;;2.77;;
8881;SDS011;4477;48.736;9.176;2023-08-06T04:51:44;3.53;;;2.60;;
8881;SDS011;4477;48.736;9.176;2023-08-06T04:54:11;3.80;;;3.17;;
8881;SDS011;4477;48.736;9.176;2023-08-06T04:56:38;4.17;;;2.90;;
8881;SDS011;4477;48.736;9.176;2023-08-06T04:59:04;3.53;;;2.67;;
8881;SDS011;4477;48.736;9.176;2023-08-06T05:01:31;5.20;;;2.50;;
8881;SDS011;4477;48.736;9.176;2023-08-06T05:04:00;2.90;;;2.60;;
8881;SDS011;4477;48.736;9.176;2023-08-06T05:06:27;3.80;;;2.70;;
8881;SDS011;4477;48.736;9.176;2023-08-06T05:08:53;6.37;;;2.80;;
8881;SDS011;4477;48.736;9.176;2023-08-06T05:11:20;4.97;;;2.17;;
8881;SDS011;4477;48.736;9.176;2023-08-06T05:13:47;3.83;;;2.20;;
8881;SDS011;4477;48.736;9.176;2023-08-06T05:16:14;2.57;;;1.90;;
8881;SDS011;4477;48.736;9.176;2023-08-06T05:18:41;2.67;;;2.20;;
8881;SDS011;4477;48.736;9.176;2023-08-06T05:21:09;3.63;;;2.50;;
8881;SDS011;4477;48.736;9.176;2023-08-06T05:23:36;3.20;;;2.23;;
8881;SDS011;4477;48.736;9.176;2023-08-06T05:26:03;3.83;;;2.00;;
8881;SDS011;4477;48.736;9.176;2023-08-06T05:28:30;4.00;;;2.00;;
8881;SDS011;4477;48.736;9.176;2023-08-06T05:30:56;4.20;;;1.90;;
8881;SDS011;4477;48.736;9.176;2023-08-06T05:33:23;4.40;;;1.70;;
8881;SDS011;4477;48.736;9.176;2023-08-06T05:35:50;2.27;;;1.60;;
8881;SDS011;4477;48.736;9.176;2023-08-06T05:38:18;3.00;;;1.47;;
8881;SDS011;4477;48.736;9.176;2023-08-06T05:40:45;3.33;;;1.57;;
8881;SDS011;4477;48.736;9.176;2023-08-06T05:43:12;3.77;;;1.20;;
8881;SDS011;4477;48.736;9.176;2023-08-06T05:45:39;4.50;;;1.30;;
8881;SDS011;4477;48.736;9.176;2023-08-06T05:48:09;2.47;;;1.50;;
8881;SDS011;4477;48.736;9.176;2023-08-06T05:50:36;4.07;;;1.30;;
8881;SDS011;4477;48.736;9.176;2023-08-06T05:53:03;3.53;;;1.80;;
8881;SDS011;4477;48.736;9.176;2023-08-06T05:55:31;3.57;;;1.23;;
8881;SDS011;4477;48.736;9.176;2023-08-06T05:57:58;1.97;;;1.30;;
8881;SDS011;4477;48.736;9.176;2023-08-06T06:00:25;2.37;;;1.17;;
8881;SDS011;4477;48.736;9.176;2023-08-06T06:02:52;3.33;;;1.30;;
8881;SDS011;4477;48.736;9.176;2023-08-06T06:05:18;2.73;;;1.03;;
8881;SDS011;4477;48.736;9.176;2023-08-06T06:07:45;3.97;;;1.40;;
8881;SDS011;4477;48.736;9.176;2023-08-06T06:10:12;3.90;;;1.30;;
8881;SDS011;4477;48.736;9.176;2023-08-06T06:12:40;1.80;;;1.00;;
8881;SDS011;4477;48.736;9.176;2023-08-06T06:15:07;3.47;;;1.20;;
8881;SDS011;4477;48.736;9.176;2023-08-06T06:17:35;3.20;;;1.13;;
8881;SDS011;4477;48.736;9.176;2023-08-06T06:20:02;1.67;;;1.00;;
8881;SDS011;4477;48.736;9.176;2023-08-06T06:22:29;2.60;;;1.30;;
8881;SDS011;4477;48.736;9.176;2023-08-06T06:24:56;2.80;;;1.13;;
8881;SDS011;4477;48.736;9.176;2023-08-06T06:27:23;2.37;;;1.00;;
8881;SDS011;4477;48.736;9.176;2023-08-06T06:29:54;1.90;;;0.97;;
8881;SDS011;4477;48.736;9.176;2023-08-06T06:32:21;3.70;;;1.30;;
8881;SDS011;4477;48.736;9.176;2023-08-06T06:34:48;2.20;;;1.00;;
8881;SDS011;4477;48.736;9.176;2023-08-06T06:37:15;2.30;;;1.07;;
8881;SDS011;4477;48.736;9.176;2023-08-06T06:39:41;2.67;;;1.10;;
8881;SDS011;4477;48.736;9.176;2023-08-06T06:42:09;1.87;;;1.00;;
8881;SDS011;4477;48.736;9.176;2023-08-06T06:44:36;1.53;;;0.80;;
8881;SDS011;4477;48.736;9.176;2023-08-06T06:47:04;1.70;;;0.93;;
8881;SDS011;4477;48.736;9.176;2023-08-06T06:49:31;2.97;;;1.00;;
8881;SDS011;4477;48.736;9.176;2023-08-06T06:51:58;4.57;;;1.00;;
8881;SDS011;4477;48.736;9.176;2023-08-06T06:54:24;1.30;;;1.07;;
8881;SDS011;4477;48.736;9.176;2023-08-06T06:56:51;2.77;;;0.90;;
8881;SDS011;4477;48.736;9.176;2023-08-06T06:59:18;2.10;;;1.00;;
8881;SDS011;4477;48.736;9.176;2023-08-06T07:01:45;2.50;;;1.00;;
8881;SDS011;4477;48.736;9.176;2023-08-06T07:04:13;3.47;;;1.07;;
8881;SDS011;4477;48.736;9.176;2023-08-06T07:06:40;2.00;;;0.90;;
8881;SDS011;4477;48.736;9.176;2023-08-06T07:09:06;1.53;;;1.10;;
8881;SDS011;4477;48.736;9.176;2023-08-06T07:11:33;3.43;;;1.20;;
8881;SDS011;4477;48.736;9.176;2023-08-06T07:14:00;1.53;;;0.80;;
8881;SDS011;4477;48.736;9.176;2023-08-06T07:16:27;2.93;;;0.90;;
8881;SDS011;4477;48.736;9.176;2023-08-06T07:18:54;3.10;;;0.90;;
8881;SDS011;4477;48.736;9.176;2023-08-06T07:21:22;1.00;;;0.80;;
8881;SDS011;4477;48.736;9.176;2023-08-06T07:23:49;2.10;;;0.80;;
8881;SDS011;4477;48.736;9.176;2023-08-06T07:26:16;2.17;;;0.93;;
8881;SDS011;4477;48.736;9.176;2023-08-06T07:28:43;2.33;;;1.17;;
8881;SDS011;4477;48.736;9.176;2023-08-06T07:31:10;1.13;;;0.70;;
8881;SDS011;4477;48.736;9.176;2023-08-06T07:33:37;2.07;;;1.00;;
8881;SDS011;4477;48.736;9.176;2023-08-06T07:36:07;0.97;;;0.70;;
8881;SDS011;4477;48.736;9.176;2023-08-06T07:38:36;1.03;;;0.70;;
8881;SDS011;4477;48.736;9.176;2023-08-06T07:41:03;1.67;;;0.83;;
8881;SDS011;4477;48.736;9.176;2023-08-06T07:43:31;1.07;;;0.97;;
8881;SDS011;4477;48.736;9.176;2023-08-06T07:45:58;1.00;;;0.63;;
8881;SDS011;4477;48.736;9.176;2023-08-06T07:48:25;2.20;;;0.70;;
8881;SDS011;4477;48.736;9.176;2023-08-06T07:50:53;0.80;;;0.50;;
8881;SDS011;4477;48.736;9.176;2023-08-06T07:53:19;1.10;;;0.60;;
8881;SDS011;4477;48.736;9.176;2023-08-06T07:55:49;1.33;;;0.60;;
8881;SDS011;4477;48.736;9.176;2023-08-06T07:58:17;0.47;;;0.40;;
8881;SDS011;4477;48.736;9.176;2023-08-06T08:00:44;1.27;;;0.30;;
8881;SDS011;4477;48.736;9.176;2023-08-06T08:03:13;2.13;;;0.30;;
8881;SDS011;4477;48.736;9.176;2023-08-06T08:05:40;0.87;;;0.40;;
8881;SDS011;4477;48.736;9.176;2023-08-06T08:08:08;0.93;;;0.23;;
8881;SDS011;4477;48.736;9.176;2023-08-06T08:10:35;0.30;;;0.30;;
8881;SDS011;4477;48.736;9.176;2023-08-06T08:13:04;2.00;;;0.33;;
8881;SDS011;4477;48.736;9.176;2023-08-06T08:15:31;0.50;;;0.33;;
8881;SDS011;4477;48.736;9.176;2023-08-06T08:17:59;0.63;;;0.30;;
8881;SDS011;4477;48.736;9.176;2023-08-06T08:20:26;1.07;;;0.20;;
8881;SDS011;4477;48.736;9.176;2023-08-06T08:22:56;0.30;;;0.20;;
8881;SDS011;4477;48.736;9.176;2023-08-06T08:25:24;1.53;;;0.30;;
8881;SDS011;4477;48.736;9.176;2023-08-06T08:27:51;1.17;;;0.23;;
8881;SDS011;4477;48.736;9.176;2023-08-06T08:30:20;0.30;;;0.20;;
8881;SDS011;4477;48.736;9.176;2023-08-06T08:32:47;1.07;;;0.30;;
8881;SDS011;4477;48.736;9.176;2023-08-06T08:35:15;0.20;;;0.10;;
8881;SDS011;4477;48.736;9.176;2023-08-06T08:37:43;0.57;;;0.20;;
8881;SDS011;4477;48.736;9.176;2023-08-06T08:40:10;0.40;;;0.20;;
8881;SDS011;4477;48.736;9.176;2023-08-06T08:42:37;0.20;;;0.10;;
8881;SDS011;4477;48.736;9.176;2023-08-06T08:45:04;0.30;;;0.20;;
8881;SDS011;4477;48.736;9.176;2023-08-06T08:47:38;0.20;;;0.10;;
8881;SDS011;4477;48.736;9.176;2023-08-06T08:50:07;1.03;;;0.20;;
8881;SDS011;4477;48.736;9.176;2023-08-06T08:52:35;0.30;;;0.20;;
8881;SDS011;4477;48.736;9.176;2023-08-06T08:55:04;0.30;;;0.10;;
8881;SDS011;4477;48.736;9.176;2023-08-06T08:57:32;0.30;;;0.23;;
8881;SDS011;4477;48.736;9.176;2023-08-06T08:59:59;0.93;;;0.20;;
8881;SDS011;4477;48.736;9.176;2023-08-06T09:02:28;0.37;;;0.20;;
8881;SDS011;4477;48.736;9.176;2023-08-06T09:04:58;0.20;;;0.10;;
8881;SDS011;4477;48.736;9.176;2023-08-06T09:07:29;0.20;;;0.10;;
8881;SDS011;4477;48.736;9.176;2023-08-06T09:09:59;0.30;;;0.10;;
8881;SDS011;4477;48.736;9.176;2023-08-06T09:12:29;0.20;;;0.00;;
8881;SDS011;4477;48.736;9.176;2023-08-06T09:14:56;0.20;;;0.10;;
8881;SDS011;4477;48.736;9.176;2023-08-06T09:17:23;0.40;;;0.03;;
8881;SDS011;4477;48.736;9.176;2023-08-06T09:19:50;0.20;;;0.10;;
8881;SDS011;4477;48.736;9.176;2023-08-06T09:22:18;0.20;;;0.10;;
8881;SDS011;4477;48.736;9.176;2023-08-06T09:24:45;0.33;;;0.13;;
8881;SDS011;4477;48.736;9.176;2023-08-06T09:27:12;0.20;;;0.10;;
8881;SDS011;4477;48.736;9.176;2023-08-06T09:29:40;0.30;;;0.20;;
8881;SDS011;4477;48.736;9.176;2023-08-06T09:32:08;1.40;;;0.20;;
8881;SDS011;4477;48.736;9.176;2023-08-06T09:34:35;0.87;;;0.30;;
8881;SDS011;4477;48.736;9.176;2023-08-06T09:37:04;0.50;;;0.37;;
8881;SDS011;4477;48.736;9.176;2023-08-06T09:39:32;0.23;;;0.10;;
8881;SDS011;4477;48.736;9.176;2023-08-06T09:41:59;0.20;;;0.20;;
8881;SDS011;4477;48.736;9.176;2023-08-06T09:44:31;0.20;;;0.13;;
8881;SDS011;4477;48.736;9.176;2023-08-06T09:47:00;0.20;;;0.10;;
8881;SDS011;4477;48.736;9.176;2023-08-06T09:49:28;0.30;;;0.20;;
8881;SDS011;4477;48.736;9.176;2023-08-06T09:52:06;0.33;;;0.13;;
8881;SDS011;4477;48.736;9.176;2023-08-06T09:54:36;1.30;;;0.13;;
8881;SDS011;4477;48.736;9.176;2023-08-06T09:57:04;0.20;;;0.10;;
8881;SDS011;4477;48.736;9.176;2023-08-06T09:59:32;0.70;;;0.20;;
8881;SDS011;4477;48.736;9.176;2023-08-06T10:02:00;0.93;;;0.20;;
8881;SDS011;4477;48.736;9.176;2023-08-06T10:04:27;0.20;;;0.10;;
8881;SDS011;4477;48.736;9.176;2023-08-06T10:06:55;0.50;;;0.20;;
8881;SDS011;4477;48.736;9.176;2023-08-06T10:09:24;1.13;;;0.10;;
8881;SDS011;4477;48.736;9.176;2023-08-06T10:11:52;1.37;;;0.30;;
8881;SDS011;4477;48.736;9.176;2023-08-06T10:14:21;0.70;;;0.30;;
8881;SDS011;4477;48.736;9.176;2023-08-06T10:16:52;0.50;;;0.50;;
8881;SDS011;4477;48.736;9.176;2023-08-06T10:19:20;0.50;;;0.27;;
8881;SDS011;4477;48.736;9.176;2023-08-06T10:24:51;0.30;;;0.20;;
8881;SDS011;4477;48.736;9.176;2023-08-06T10:27:28;0.30;;;0.27;;
8881;SDS011;4477;48.736;9.176;2023-08-06T10:29:56;1.03;;;0.30;;
8881;SDS011;4477;48.736;9.176;2023-08-06T10:32:47;0.33;;;0.20;;
8881;SDS011;4477;48.736;9.176;2023-08-06T10:35:27;0.50;;;0.30;;
8881;SDS011;4477;48.736;9.176;2023-08-06T10:37:58;1.07;;;0.20;;
8881;SDS011;4477;48.736;9.176;2023-08-06T10:40:25;0.20;;;0.20;;
8881;SDS011;4477;48.736;9.176;2023-08-06T10:42:55;0.40;;;0.30;;
8881;SDS011;4477;48.736;9.176;2023-08-06T10:45:25;0.97;;;0.23;;
8881;SDS011;4477;48.736;9.176;2023-08-06T10:47:54;0.97;;;0.40;;
8881;SDS011;4477;48.736;9.176;2023-08-06T10:50:21;1.90;;;0.20;;
8881;SDS011;4477;48.736;9.176;2023-08-06T10:52:49;0.77;;;0.30;;
8881;SDS011;4477;48.736;9.176;2023-08-06T10:55:22;0.40;;;0.30;;
8881;SDS011;4477;48.736;9.176;2023-08-06T10:57:50;0.33;;;0.20;;
8881;SDS011;4477;48.736;9.176;2023-08-06T11:00:18;0.50;;;0.20;;
8881;SDS011;4477;48.736;9.176;2023-08-06T11:02:46;0.60;;;0.27;;
8881;SDS011;4477;48.736;9.176;2023-08-06T11:05:14;1.50;;;0.40;;
8881;SDS011;4477;48.736;9.176;2023-08-06T11:07:41;1.07;;;0.30;;
8881;SDS011;4477;48.736;9.176;2023-08-06T11:10:09;0.50;;;0.20;;
8881;SDS011;4477;48.736;9.176;2023-08-06T11:12:37;0.73;;;0.40;;
8881;SDS011;4477;48.736;9.176;2023-08-06T11:15:04;0.20;;;0.20;;
8881;SDS011;4477;48.736;9.176;2023-08-06T11:17:34;0.30;;;0.30;;
8881;SDS011;4477;48.736;9.176;2023-08-06T11:20:01;0.20;;;0.20;;
8881;SDS011;4477;48.736;9.176;2023-08-06T11:22:29;0.30;;;0.30;;
8881;SDS011;4477;48.736;9.176;2023-08-06T11:24:56;0.20;;;0.13;;
8881;SDS011;4477;48.736;9.176;2023-08-06T11:27:25;0.83;;;0.30;;
8881;SDS011;4477;48.736;9.176;2023-08-06T11:29:53;0.50;;;0.40;;
8881;SDS011;4477;48.736;9.176;2023-08-06T11:32:20;0.40;;;0.40;;
8881;SDS011;4477;48.736;9.176;2023-08-06T11:34:48;1.33;;;0.40;;
8881;SDS011;4477;48.736;9.176;2023-08-06T11:37:15;0.50;;;0.50;;
8881;SDS011;4477;48.736;9.176;2023-08-06T11:39:45;0.90;;;0.50;;
8881;SDS011;4477;48.736;9.176;2023-08-06T11:42:13;2.20;;;0.70;;
8881;SDS011;4477;48.736;9.176;2023-08-06T11:44:40;0.70;;;0.70;;
8881;SDS011;4477;48.736;9.176;2023-08-06T11:47:12;0.90;;;0.70;;
8881;SDS011;4477;48.736;9.176;2023-08-06T11:49:40;1.73;;;0.57;;
8881;SDS011;4477;48.736;9.176;2023-08-06T11:52:17;1.67;;;0.90;;
8881;SDS011;4477;48.736;9.176;2023-08-06T11:54:45;1.43;;;0.73;;
8881;SDS011;4477;48.736;9.176;2023-08-06T11:57:13;1.00;;;0.80;;
8881;SDS011;4477;48.736;9.176;2023-08-06T11:59:41;1.40;;;0.80;;
8881;SDS011;4477;48.736;9.176;2023-08-06T12:02:08;1.33;;;0.80;;
8881;SDS011;4477;48.736;9.176;2023-08-06T12:07:27;1.63;;;0.90;;
8881;SDS011;4477;48.736;9.176;2023-08-06T12:09:57;1.23;;;0.80;;
8881;SDS011;4477;48.736;9.176;2023-08-06T12:12:24;1.93;;;0.93;;
8881;SDS011;4477;48.736;9.176;2023-08-06T12:14:51;4.73;;;3.33;;
8881;SDS011;4477;48.736;9.176;2023-08-06T12:17:18;3.03;;;2.00;;
8881;SDS011;4477;48.736;9.176;2023-08-06T12:19:45;1.30;;;0.70;;
8881;SDS011;4477;48.736;9.176;2023-08-06T12:22:12;1.57;;;0.73;;
8881;SDS011;4477;48.736;9.176;2023-08-06T12:24:41;1.57;;;0.80;;
8881;SDS011;4477;48.736;9.176;2023-08-06T12:27:09;2.33;;;0.77;;
8881;SDS011;4477;48.736;9.176;2023-08-06T12:29:36;0.70;;;0.70;;
8881;SDS011;4477;48.736;9.176;2023-08-06T12:32:06;1.77;;;0.77;;
8881;SDS011;4477;48.736;9.176;2023-08-06T12:34:33;0.80;;;0.80;;
8881;SDS011;4477;48.736;9.176;2023-08-06T12:37:00;1.13;;;0.77;;
8881;SDS011;4477;48.736;9.176;2023-08-06T12:39:28;1.10;;;1.00;;
8881;SDS011;4477;48.736;9.176;2023-08-06T12:41:57;1.13;;;0.77;;
8881;SDS011;4477;48.736;9.176;2023-08-06T12:44:24;1.80;;;1.00;;
8881;SDS011;4477;48.736;9.176;2023-08-06T12:46:52;3.03;;;0.73;;
8881;SDS011;4477;48.736;9.176;2023-08-06T12:49:19;1.60;;;0.70;;
8881;SDS011;4477;48.736;9.176;2023-08-06T12:51:47;0.80;;;0.70;;
8881;SDS011;4477;48.736;9.176;2023-08-06T12:54:14;1.50;;;0.50;;
8881;SDS011;4477;48.736;9.176;2023-08-06T12:56:42;0.90;;;0.70;;
8881;SDS011;4477;48.736;9.176;2023-08-06T12:59:10;0.77;;;0.60;;
8881;SDS011;4477;48.736;9.176;2023-08-06T13:01:37;1.30;;;0.70;;
8881;SDS011;4477;48.736;9.176;2023-08-06T13:04:04;1.37;;;0.87;;
8881;SDS011;4477;48.736;9.176;2023-08-06T13:06:31;1.03;;;0.80;;
8881;SDS011;4477;48.736;9.176;2023-08-06T13:09:02;2.17;;;1.10;;
8881;SDS011;4477;48.736;9.176;2023-08-06T13:11:29;4.53;;;1.10;;
8881;SDS011;4477;48.736;9.176;2023-08-06T13:13:58;1.90;;;0.93;;
8881;SDS011;4477;48.736;9.176;2023-08-06T13:16:31;1.50;;;0.90;;
8881;SDS011;4477;48.736;9.176;2023-08-06T13:18:58;1.87;;;1.00;;
8881;SDS011;4477;48.736;9.176;2023-08-06T13:21:31;0.90;;;0.90;;
8881;SDS011;4477;48.736;9.176;2023-08-06T13:24:00;4.57;;;1.20;;
8881;SDS011;4477;48.736;9.176;2023-08-06T13:26:27;1.43;;;1.30;;
8881;SDS011;4477;48.736;9.176;2023-08-06T13:28:54;1.20;;;0.90;;
8881;SDS011;4477;48.736;9.176;2023-08-06T13:31:22;1.83;;;1.10;;
8881;SDS011;4477;48.736;9.176;2023-08-06T13:33:51;2.07;;;1.10;;
8881;SDS011;4477;48.736;9.176;2023-08-06T13:36:20;1.23;;;0.80;;
8881;SDS011;4477;48.736;9.176;2023-08-06T13:38:47;1.00;;;0.90;;
8881;SDS011;4477;48.736;9.176;2023-08-06T13:41:14;2.97;;;1.10;;
8881;SDS011;4477;48.736;9.176;2023-08-06T13:43:41;1.20;;;0.50;;
8881;SDS011;4477;48.736;9.176;2023-08-06T13:46:09;1.33;;;0.63;;
8881;SDS011;4477;48.736;9.176;2023-08-06T13:48:39;2.20;;;0.87;;
8881;SDS011;4477;48.736;9.176;2023-08-06T13:51:08;2.00;;;0.70;;
8881;SDS011;4477;48.736;9.176;2023-08-06T13:53:35;0.83;;;0.70;;
8881;SDS011;4477;48.736;9.176;2023-08-06T13:56:02;0.67;;;0.60;;
8881;SDS011;4477;48.736;9.176;2023-08-06T13:58:30;1.00;;;0.60;;
8881;SDS011;4477;48.736;9.176;2023-08-06T14:00:56;1.17;;;0.43;;
8881;SDS011;4477;48.736;9.176;2023-08-06T14:03:23;0.57;;;0.50;;
8881;SDS011;4477;48.736;9.176;2023-08-06T14:05:50;3.23;;;0.70;;
8881;SDS011;4477;48.736;9.176;2023-08-06T14:08:21;1.00;;;0.67;;
8881;SDS011;4477;48.736;9.176;2023-08-06T14:10:48;1.50;;;0.80;;
8881;SDS011;4477;48.736;9.176;2023-08-06T14:13:16;1.00;;;0.60;;
8881;SDS011;4477;48.736;9.176;2023-08-06T14:15:43;4.00;;;0.60;;
8881;SDS011;4477;48.736;9.176;2023-08-06T14:18:12;1.30;;;0.50;;
8881;SDS011;4477;48.736;9.176;2023-08-06T14:20:39;1.33;;;0.60;;
8881;SDS011;4477;48.736;9.176;2023-08-06T14:23:06;1.43;;;0.60;;
8881;SDS011;4477;48.736;9.176;2023-08-06T14:25:34;2.03;;;0.67;;
8881;SDS011;4477;48.736;9.176;2023-08-06T14:28:01;1.77;;;0.70;;
8881;SDS011;4477;48.736;9.176;2023-08-06T14:30:29;1.23;;;0.60;;
8881;SDS011;4477;48.736;9.176;2023-08-06T14:32:55;1.17;;;0.67;;
8881;SDS011;4477;48.736;9.176;2023-08-06T14:35:23;0.97;;;0.60;;
8881;SDS011;4477;48.736;9.176;2023-08-06T14:37:50;2.20;;;0.67;;
8881;SDS011;4477;48.736;9.176;2023-08-06T14:40:17;1.00;;;0.50;;
8881;SDS011;4477;48.736;9.176;2023-08-06T14:42:45;0.70;;;0.60;;
8881;SDS011;4477;48.736;9.176;2023-08-06T14:45:12;0.50;;;0.50;;
8881;SDS011;4477;48.736;9.176;2023-08-06T14:47:39;0.80;;;0.80;;
8881;SDS011;4477;48.736;9.176;2023-08-06T14:50:06;1.50;;;1.00;;
8881;SDS011;4477;48.736;9.176;2023-08-06T14:52:34;0.90;;;0.73;;
8881;SDS011;4477;48.736;9.176;2023-08-06T14:55:01;1.07;;;0.57;;
8881;SDS011;4477;48.736;9.176;2023-08-06T14:57:28;1.83;;;0.60;;
8881;SDS011;4477;48.736;9.176;2023-08-06T14:59:57;10.33;;;1.40;;
8881;SDS011;4477;48.736;9.176;2023-08-06T15:02:25;1.70;;;0.80;;
8881;SDS011;4477;48.736;9.176;2023-08-06T15:04:52;1.17;;;0.60;;
8881;SDS011;4477;48.736;9.176;2023-08-06T15:07:19;1.63;;;0.80;;
8881;SDS011;4477;48.736;9.176;2023-08-06T15:09:46;1.00;;;0.90;;
8881;SDS011;4477;48.736;9.176;2023-08-06T15:12:12;0.60;;;0.60;;
8881;SDS011;4477;48.736;9.176;2023-08-06T15:14:40;2.40;;;0.70;;
8881;SDS011;4477;48.736;9.176;2023-08-06T15:17:08;1.33;;;0.80;;
8881;SDS011;4477;48.736;9.176;2023-08-06T15:19:35;0.77;;;0.70;;
8881;SDS011;4477;48.736;9.176;2023-08-06T15:22:02;3.23;;;0.53;;